createdAt,value
2022-10-03T00:02:07.406Z,3.85
2022-10-03T00:04:58.695Z,3.78
2022-10-03T00:07:51.987Z,5.05
2022-10-03T00:10:46.692Z,3.67
2022-10-03T00:13:29.011Z,3.67
2022-10-03T00:16:09.397Z,3.10
2022-10-03T00:18:41.692Z,3.72
2022-10-03T00:21:43.413Z,3.53
2022-10-03T00:24:30.422Z,3.35
2022-10-03T00:27:14.317Z,3.75
2022-10-03T00:29:54.769Z,4.10
2022-10-03T00:32:48.704Z,3.85
2022-10-03T00:36:02.672Z,4.20
2022-10-03T00:38:47.179Z,3.95
2022-10-03T00:41:41.550Z,4.85
2022-10-03T00:44:20.990Z,4.18
2022-10-03T00:46:55.852Z,3.90
2022-10-03T00:50:04.418Z,4.05
2022-10-03T00:52:42.844Z,3.50
2022-10-03T00:55:41.746Z,3.50
2022-10-03T00:58:39.210Z,3.65
2022-10-03T01:01:28.663Z,3.28
2022-10-03T01:04:10.918Z,3.53
2022-10-03T01:06:57.918Z,3.85
2022-10-03T01:09:57.045Z,3.05
2022-10-03T01:12:47.841Z,2.83
2022-10-03T01:15:37.527Z,3.05
2022-10-03T01:18:13.169Z,3.45
2022-10-03T01:20:54.990Z,2.95
2022-10-03T01:23:29.268Z,2.75
2022-10-03T01:26:14.406Z,3.05
2022-10-03T01:29:11.913Z,3.10
2022-10-03T01:31:42.206Z,2.78
2022-10-03T01:34:23.213Z,3.15
2022-10-03T01:36:52.715Z,2.90
2022-10-03T01:39:34.941Z,2.55
2022-10-03T01:42:11.374Z,2.28
2022-10-03T01:44:44.063Z,2.08
2022-10-03T01:47:36.518Z,2.20
2022-10-03T01:50:24.100Z,2.20
2022-10-03T01:53:15.106Z,2.03
2022-10-03T01:56:08.607Z,3.50
2022-10-03T01:58:35.002Z,3.15
2022-10-03T02:01:07.892Z,3.75
2022-10-03T02:03:57.079Z,3.20
2022-10-03T02:06:38.568Z,4.03
2022-10-03T02:09:28.501Z,3.50
2022-10-03T02:12:25.528Z,4.30
2022-10-03T02:15:26.144Z,3.92
2022-10-03T02:18:02.555Z,3.40
2022-10-03T02:20:43.223Z,3.58
2022-10-03T02:23:37.030Z,3.53
2022-10-03T02:26:49.923Z,3.47
2022-10-03T02:29:29.945Z,3.80
2022-10-03T02:32:09.615Z,3.50
2022-10-03T02:35:06.028Z,3.60
2022-10-03T02:37:32.582Z,3.92
2022-10-03T02:40:05.188Z,2.90
2022-10-03T02:42:53.386Z,2.90
2022-10-03T02:45:28.889Z,3.20
2022-10-03T02:50:59.817Z,3.47
2022-10-03T02:54:07.590Z,3.60
2022-10-03T02:56:57.802Z,3.80
2022-10-03T02:59:41.659Z,3.63
2022-10-03T03:02:37.546Z,3.72
2022-10-03T03:05:26.345Z,3.55
2022-10-03T03:08:19.222Z,3.72
2022-10-03T03:11:08.379Z,4.05
2022-10-03T03:13:56.503Z,3.25
2022-10-03T03:16:33.510Z,2.55
2022-10-03T03:19:15.318Z,2.60
2022-10-03T03:21:50.302Z,1.98
2022-10-03T03:24:37.068Z,2.15
2022-10-03T03:27:31.132Z,2.08
2022-10-03T03:30:11.647Z,2.20
2022-10-03T03:32:56.912Z,1.90
2022-10-03T03:35:26.434Z,1.85
2022-10-03T03:38:05.346Z,2.28
2022-10-03T03:40:56.464Z,2.20
2022-10-03T03:43:55.479Z,2.80
2022-10-03T03:46:29.878Z,2.22
2022-10-03T03:49:29.847Z,3.50
2022-10-03T03:52:14.157Z,2.05
2022-10-03T03:54:59.540Z,2.67
2022-10-03T03:57:46.557Z,2.90
2022-10-03T04:00:31.321Z,2.53
2022-10-03T04:03:20.018Z,2.58
2022-10-03T04:06:03.385Z,2.67
2022-10-03T04:08:47.161Z,2.60
2022-10-03T04:11:13.794Z,2.35
2022-10-03T04:13:44.656Z,2.33
2022-10-03T04:17:01.226Z,1.80
2022-10-03T04:19:55.253Z,2.05
2022-10-03T04:22:29.999Z,2.50
2022-10-03T04:25:22.945Z,2.10
2022-10-03T04:28:26.737Z,2.50
2022-10-03T04:31:02.542Z,2.65
2022-10-03T04:33:56.121Z,2.10
2022-10-03T04:36:31.538Z,1.90
2022-10-03T04:41:54.751Z,1.40
2022-10-03T04:44:51.566Z,1.55
2022-10-03T04:47:20.840Z,1.58
2022-10-03T04:49:56.429Z,1.70
2022-10-03T04:52:51.896Z,1.80
2022-10-03T04:55:28.401Z,4.40
2022-10-03T04:58:32.212Z,2.30
2022-10-03T05:01:06.490Z,3.45
2022-10-03T05:04:15.925Z,2.63
2022-10-03T05:07:14.445Z,3.28
2022-10-03T05:10:04.498Z,4.30
2022-10-03T05:13:02.555Z,4.35
2022-10-03T05:16:06.187Z,3.80
2022-10-03T05:18:43.632Z,4.05
2022-10-03T05:21:10.026Z,4.32
2022-10-03T05:24:15.508Z,4.50
2022-10-03T05:27:39.287Z,3.97
2022-10-03T05:30:16.799Z,3.53
2022-10-03T05:32:51.162Z,4.15
2022-10-03T05:35:46.014Z,3.83
2022-10-03T05:38:29.542Z,4.22
2022-10-03T05:41:17.521Z,3.92
2022-10-03T05:44:05.111Z,4.07
2022-10-03T05:46:46.544Z,3.42
2022-10-03T05:49:34.756Z,4.30
2022-10-03T05:52:04.315Z,7.75
2022-10-03T05:54:50.413Z,4.53
2022-10-03T05:57:35.651Z,4.07
2022-10-03T06:00:19.867Z,3.10
2022-10-03T06:03:05.430Z,2.72
2022-10-03T06:06:03.359Z,2.75
2022-10-03T06:08:51.390Z,2.67
2022-10-03T06:11:44.445Z,2.28
2022-10-03T06:14:23.858Z,1.58
2022-10-03T06:17:37.609Z,1.63
2022-10-03T06:20:46.145Z,1.83
2022-10-03T06:23:48.121Z,1.60
2022-10-03T06:26:29.646Z,2.53
2022-10-03T06:29:08.253Z,2.90
2022-10-03T06:32:02.762Z,3.05
2022-10-03T06:34:48.673Z,3.03
2022-10-03T06:40:42.162Z,4.43
2022-10-03T06:43:34.017Z,4.43
2022-10-03T06:46:28.498Z,4.47
2022-10-03T06:49:18.904Z,5.60
2022-10-03T06:52:04.908Z,6.07
2022-10-03T06:55:13.518Z,6.60
2022-10-03T06:57:58.567Z,7.40
2022-10-03T07:00:34.774Z,7.33
2022-10-03T07:04:11.653Z,6.22
2022-10-03T07:06:56.585Z,6.68
2022-10-03T07:09:41.769Z,7.23
2022-10-03T07:12:39.231Z,5.95
2022-10-03T07:15:18.178Z,6.05
2022-10-03T07:18:26.456Z,6.13
2022-10-03T07:21:24.310Z,6.45
2022-10-03T07:24:10.287Z,6.07
2022-10-03T07:26:43.774Z,7.40
2022-10-03T07:29:28.493Z,5.47
2022-10-03T07:32:13.330Z,5.65
2022-10-03T07:35:07.443Z,5.00
2022-10-03T07:38:24.894Z,5.45
2022-10-03T07:41:22.025Z,5.65
2022-10-03T07:44:01.705Z,5.80
2022-10-03T07:46:53.605Z,5.35
2022-10-03T07:50:04.270Z,4.50
2022-10-03T07:52:38.091Z,5.40
2022-10-03T07:55:19.373Z,4.97
2022-10-03T07:58:07.444Z,5.38
2022-10-03T08:01:03.761Z,4.80
2022-10-03T08:04:04.128Z,5.00
2022-10-03T08:06:44.831Z,4.32
2022-10-03T08:09:31.584Z,5.07
2022-10-03T08:12:16.281Z,5.25
2022-10-03T08:14:52.992Z,5.25
2022-10-03T08:17:51.055Z,4.68
2022-10-03T08:20:36.289Z,5.57
2022-10-03T08:23:41.867Z,5.43
2022-10-03T08:26:47.718Z,4.93
2022-10-03T08:29:33.044Z,5.10
2022-10-03T08:32:24.221Z,4.93
2022-10-03T08:35:09.747Z,4.50
2022-10-03T08:38:10.339Z,4.70
2022-10-03T08:40:53.825Z,4.95
2022-10-03T08:43:57.821Z,4.32
2022-10-03T08:46:51.679Z,4.53
2022-10-03T08:49:51.747Z,4.20
2022-10-03T08:52:44.049Z,5.03
2022-10-03T08:55:19.769Z,4.13
2022-10-03T08:58:11.502Z,5.07
2022-10-03T09:01:22.363Z,4.55
2022-10-03T09:03:58.165Z,4.32
2022-10-03T09:07:16.681Z,4.57
2022-10-03T09:09:58.930Z,4.82
2022-10-03T09:12:34.455Z,4.93
2022-10-03T09:15:14.200Z,5.15
2022-10-03T09:18:04.331Z,3.75
2022-10-03T09:20:36.457Z,3.85
2022-10-03T09:23:34.794Z,3.47
2022-10-03T09:26:35.706Z,3.33
2022-10-03T09:29:33.199Z,2.97
2022-10-03T09:32:18.119Z,3.05
2022-10-03T09:35:07.080Z,3.35
2022-10-03T09:37:50.524Z,3.17
2022-10-03T09:40:56.308Z,4.07
2022-10-03T09:43:50.458Z,3.53
2022-10-03T09:46:41.815Z,2.78
2022-10-03T09:49:23.975Z,2.67
2022-10-03T09:51:59.301Z,2.60
2022-10-03T09:57:16.114Z,2.33
2022-10-03T09:59:58.210Z,2.90
2022-10-03T10:02:52.398Z,2.30
2022-10-03T10:05:49.798Z,2.25
2022-10-03T10:08:53.866Z,2.08
2022-10-03T10:11:54.194Z,2.35
2022-10-03T10:14:42.191Z,2.53
2022-10-03T10:17:46.305Z,2.92
2022-10-03T10:20:45.132Z,2.10
2022-10-03T10:23:24.683Z,2.00
2022-10-03T10:26:01.781Z,2.25
2022-10-03T10:28:28.213Z,2.05
2022-10-03T10:31:32.970Z,2.22
2022-10-03T10:34:19.198Z,2.60
2022-10-03T10:37:10.349Z,2.17
2022-10-03T10:39:53.065Z,2.70
2022-10-03T10:42:25.545Z,2.53
2022-10-03T10:45:15.557Z,2.15
2022-10-03T10:48:03.902Z,2.72
2022-10-03T10:51:07.883Z,2.72
2022-10-03T10:54:12.626Z,2.85
2022-10-03T10:56:57.325Z,2.22
2022-10-03T10:59:42.050Z,2.53
2022-10-03T11:02:24.026Z,2.63
2022-10-03T11:05:29.775Z,2.17
2022-10-03T11:08:21.024Z,2.80
2022-10-03T11:11:21.402Z,2.38
2022-10-03T11:14:17.262Z,2.10
2022-10-03T11:17:23.911Z,2.58
2022-10-03T11:20:27.509Z,2.17
2022-10-03T11:23:08.965Z,2.05
2022-10-03T11:25:54.244Z,2.13
2022-10-03T11:28:58.276Z,2.00
2022-10-03T11:31:46.795Z,2.22
2022-10-03T11:34:42.487Z,2.70
2022-10-03T11:37:50.820Z,1.77
2022-10-03T11:40:39.630Z,2.10
2022-10-03T11:43:46.274Z,2.33
2022-10-03T11:46:39.379Z,2.40
2022-10-03T11:49:38.926Z,2.08
2022-10-03T11:52:25.635Z,2.70
2022-10-03T11:55:01.625Z,2.47
2022-10-03T11:57:31.559Z,1.90
2022-10-03T12:00:19.896Z,2.10
2022-10-03T12:03:08.061Z,2.03
2022-10-03T12:06:31.239Z,1.70
2022-10-03T12:09:28.978Z,2.25
2022-10-03T12:12:28.075Z,1.90
2022-10-03T12:15:15.389Z,2.17
2022-10-03T12:17:51.073Z,1.67
2022-10-03T12:20:28.856Z,1.92
2022-10-03T12:23:13.013Z,2.22
2022-10-03T12:25:43.325Z,1.70
2022-10-03T12:28:36.022Z,1.45
2022-10-03T12:31:18.987Z,1.75
2022-10-03T12:34:12.505Z,1.92
2022-10-03T12:36:51.112Z,1.60
2022-10-03T12:39:45.534Z,1.15
2022-10-03T12:42:30.797Z,1.48
2022-10-03T12:45:19.174Z,1.20
2022-10-03T12:47:56.355Z,1.65
2022-10-03T12:50:43.110Z,1.67
2022-10-03T12:53:15.853Z,1.35
2022-10-03T12:55:51.496Z,1.40
2022-10-03T12:58:36.929Z,1.58
2022-10-03T13:01:09.353Z,1.42
2022-10-03T13:03:59.188Z,1.63
2022-10-03T13:07:03.006Z,1.55
2022-10-03T13:09:36.343Z,1.50
2022-10-03T13:12:22.041Z,1.52
2022-10-03T13:15:18.272Z,1.17
2022-10-03T13:18:04.170Z,1.90
2022-10-03T13:20:37.096Z,1.92
2022-10-03T13:23:14.386Z,1.60
2022-10-03T13:26:07.514Z,1.20
2022-10-03T13:28:59.740Z,1.50
2022-10-03T13:31:32.616Z,1.58
2022-10-03T13:34:10.385Z,1.63
2022-10-03T13:36:44.827Z,1.40
2022-10-03T13:39:25.862Z,1.30
2022-10-03T13:42:22.468Z,2.00
2022-10-03T13:44:55.555Z,1.60
2022-10-03T13:47:46.870Z,1.30
2022-10-03T13:50:19.053Z,1.38
2022-10-03T13:52:57.724Z,1.10
2022-10-03T13:55:42.227Z,1.58
2022-10-03T13:58:33.654Z,1.85
2022-10-03T14:01:28.360Z,1.35
2022-10-03T14:04:13.633Z,1.75
2022-10-03T14:06:48.399Z,1.50
2022-10-03T14:09:32.543Z,1.70
2022-10-03T14:12:13.636Z,1.70
2022-10-03T14:15:10.913Z,1.60
2022-10-03T14:17:51.657Z,1.40
2022-10-03T14:20:41.270Z,1.77
2022-10-03T14:23:24.310Z,1.58
2022-10-03T14:26:08.847Z,1.58
2022-10-03T14:28:47.260Z,2.20
2022-10-03T14:31:31.889Z,1.50
2022-10-03T14:34:44.008Z,1.20
2022-10-03T14:37:28.358Z,1.83
2022-10-03T14:40:17.664Z,1.88
2022-10-03T14:43:21.838Z,2.40
2022-10-03T14:45:52.095Z,1.80
2022-10-03T14:48:37.942Z,1.38
2022-10-03T14:51:20.153Z,1.75
2022-10-03T14:54:02.513Z,1.50
2022-10-03T14:56:41.915Z,1.52
2022-10-03T14:59:33.436Z,1.90
2022-10-03T15:02:20.462Z,1.20
2022-10-03T15:04:47.821Z,1.90
2022-10-03T15:07:15.095Z,1.67
2022-10-03T15:09:50.414Z,1.88
2022-10-03T15:12:23.869Z,1.70
2022-10-03T15:15:18.183Z,1.98
2022-10-03T15:17:53.649Z,1.63
2022-10-03T15:20:26.860Z,1.60
2022-10-03T15:22:56.954Z,1.30
2022-10-03T15:25:30.633Z,1.67
2022-10-03T15:28:02.738Z,1.60
2022-10-03T15:30:33.710Z,1.70
2022-10-03T15:33:22.945Z,1.92
2022-10-03T15:35:55.256Z,1.35
2022-10-03T15:38:27.165Z,1.80
2022-10-03T15:41:13.387Z,1.20
2022-10-03T15:44:02.418Z,1.75
2022-10-03T15:46:52.625Z,1.50
2022-10-03T15:49:37.459Z,2.17
2022-10-03T15:52:33.111Z,1.53
2022-10-03T15:55:12.638Z,1.33
2022-10-03T15:57:46.043Z,2.35
2022-10-03T16:00:28.910Z,2.17
2022-10-03T16:03:29.306Z,1.90
2022-10-03T16:06:07.574Z,2.00
2022-10-03T16:08:47.474Z,1.70
2022-10-03T16:11:21.282Z,2.58
2022-10-03T16:14:09.065Z,1.80
2022-10-03T16:16:54.794Z,2.33
2022-10-03T16:19:33.765Z,2.30
2022-10-03T16:22:06.230Z,2.20
2022-10-03T16:25:16.193Z,2.33
2022-10-03T16:27:53.751Z,1.73
2022-10-03T16:30:29.891Z,2.53
2022-10-03T16:33:20.067Z,2.63
2022-10-03T16:35:54.485Z,2.05
2022-10-03T16:38:44.801Z,2.20
2022-10-03T16:41:38.052Z,1.70
2022-10-03T16:44:22.966Z,1.98
2022-10-03T16:46:52.510Z,2.10
2022-10-03T16:49:43.767Z,1.95
2022-10-03T16:52:16.702Z,2.80
2022-10-03T16:54:47.036Z,2.10
2022-10-03T16:57:21.456Z,2.65
2022-10-03T16:59:51.990Z,1.90
2022-10-03T17:02:27.213Z,2.33
2022-10-03T17:07:42.693Z,2.13
2022-10-03T17:10:34.757Z,2.00
2022-10-03T17:13:10.849Z,2.40
2022-10-03T17:15:46.057Z,2.50
2022-10-03T17:18:25.421Z,2.97
2022-10-03T17:21:15.363Z,2.65
2022-10-03T17:24:04.254Z,3.05
2022-10-03T17:26:39.234Z,4.05
2022-10-03T17:29:23.971Z,5.05
2022-10-03T17:32:05.884Z,6.30
2022-10-03T17:34:40.575Z,7.72
2022-10-03T17:37:39.131Z,11.60
2022-10-03T17:40:59.986Z,10.98
2022-10-03T17:43:43.101Z,6.70
2022-10-03T17:46:28.304Z,7.45
2022-10-03T17:49:18.158Z,8.10
2022-10-03T17:51:48.115Z,15.15
2022-10-03T17:54:30.694Z,17.23
2022-10-03T17:57:12.473Z,15.68
2022-10-03T17:59:52.710Z,15.00
2022-10-03T18:02:37.275Z,17.13
2022-10-03T18:05:18.868Z,16.42
2022-10-03T18:07:46.883Z,12.13
2022-10-03T18:10:24.306Z,9.25
2022-10-03T18:12:54.055Z,8.60
2022-10-03T18:15:58.095Z,8.65
2022-10-03T18:18:56.399Z,9.07
2022-10-03T18:21:46.995Z,9.48
2022-10-03T18:24:40.470Z,9.40
2022-10-03T18:27:34.362Z,9.00
2022-10-03T18:30:16.789Z,8.68
2022-10-03T18:32:45.568Z,9.10
2022-10-03T18:35:23.553Z,8.70
2022-10-03T18:37:55.312Z,8.70
2022-10-03T18:40:32.845Z,8.00
2022-10-03T18:43:00.899Z,8.13
2022-10-03T18:45:32.687Z,8.77
2022-10-03T18:48:25.295Z,8.93
2022-10-03T18:51:09.348Z,9.18
2022-10-03T18:53:44.874Z,8.40
2022-10-03T18:56:17.156Z,9.07
2022-10-03T18:58:59.231Z,8.27
2022-10-03T19:01:33.753Z,7.22
2022-10-03T19:04:16.281Z,7.10
2022-10-03T19:06:46.594Z,6.25
2022-10-03T19:09:25.023Z,5.70
2022-10-03T19:12:22.427Z,5.15
2022-10-03T19:15:01.002Z,5.45
2022-10-03T19:17:53.947Z,5.75
2022-10-03T19:20:26.773Z,5.53
2022-10-03T19:23:18.815Z,4.90
2022-10-03T19:25:52.165Z,4.07
2022-10-03T19:28:27.491Z,4.82
2022-10-03T19:33:36.082Z,3.47
2022-10-03T19:36:05.655Z,3.63
2022-10-03T19:38:43.406Z,3.63
2022-10-03T19:41:25.668Z,3.30
2022-10-03T19:43:54.546Z,3.50
2022-10-03T19:46:29.978Z,2.83
2022-10-03T19:51:29.544Z,2.60
2022-10-03T19:53:57.625Z,2.42
2022-10-03T19:56:26.941Z,3.00
2022-10-03T19:59:16.574Z,2.80
2022-10-03T20:01:49.141Z,2.55
2022-10-03T20:04:31.914Z,3.08
2022-10-03T20:06:58.758Z,2.60
2022-10-03T20:09:29.421Z,2.72
2022-10-03T20:11:59.810Z,2.90
2022-10-03T20:14:34.569Z,3.17
2022-10-03T20:17:14.679Z,2.95
2022-10-03T20:19:54.816Z,3.08
2022-10-03T20:22:26.521Z,3.05
2022-10-03T20:24:55.342Z,3.13
2022-10-03T20:27:36.883Z,3.17
2022-10-03T20:30:21.577Z,3.45
2022-10-03T20:32:49.524Z,3.33
2022-10-03T20:35:21.997Z,4.63
2022-10-03T20:38:03.446Z,4.15
2022-10-03T20:40:38.062Z,4.15
2022-10-03T20:43:23.092Z,4.88
2022-10-03T20:46:13.565Z,3.42
2022-10-03T20:48:52.728Z,3.17
2022-10-03T20:51:23.275Z,3.60
2022-10-03T20:53:54.841Z,4.15
2022-10-03T20:56:33.609Z,3.75
2022-10-03T20:59:05.656Z,3.75
2022-10-03T21:01:35.195Z,3.90
2022-10-03T21:04:30.341Z,4.03
2022-10-03T21:07:04.662Z,3.97
2022-10-03T21:09:42.930Z,4.63
2022-10-03T21:12:20.618Z,5.20
2022-10-03T21:15:33.660Z,4.80
2022-10-03T21:18:01.692Z,4.97
2022-10-03T21:20:36.230Z,4.80
2022-10-03T21:23:12.899Z,4.55
2022-10-03T21:25:43.746Z,4.80
2022-10-03T21:28:25.397Z,4.70
2022-10-03T21:31:27.983Z,4.97
2022-10-03T21:33:58.324Z,4.80
2022-10-03T21:36:33.484Z,4.85
2022-10-03T21:39:15.247Z,5.43
2022-10-03T21:41:52.636Z,5.28
2022-10-03T21:44:43.662Z,5.20
2022-10-03T21:47:44.129Z,4.82
2022-10-03T21:50:19.229Z,5.93
2022-10-03T21:53:01.029Z,5.65
2022-10-03T21:55:53.448Z,5.57
2022-10-03T21:58:33.231Z,5.47
2022-10-03T22:01:13.190Z,6.55
2022-10-03T22:03:57.899Z,6.43
2022-10-03T22:06:36.702Z,7.43
2022-10-03T22:09:11.911Z,7.32
2022-10-03T22:11:47.373Z,7.38
2022-10-03T22:14:32.679Z,7.25
2022-10-03T22:17:08.445Z,7.35
2022-10-03T22:19:43.782Z,8.35
2022-10-03T22:25:17.403Z,9.07
2022-10-03T22:27:56.594Z,8.70
2022-10-03T22:30:23.501Z,7.72
2022-10-03T22:32:59.311Z,6.20
2022-10-03T22:35:31.506Z,6.20
2022-10-03T22:37:58.102Z,6.40
2022-10-03T22:40:25.895Z,5.95
2022-10-03T22:42:56.450Z,6.78
2022-10-03T22:45:29.566Z,6.55
2022-10-03T22:47:59.543Z,6.45
2022-10-03T22:50:31.534Z,6.30
2022-10-03T22:52:59.933Z,5.90
2022-10-03T22:55:28.079Z,5.45
2022-10-03T22:57:55.929Z,5.93
2022-10-03T23:00:28.577Z,6.97
2022-10-03T23:03:22.649Z,9.82
2022-10-03T23:06:11.035Z,8.55
2022-10-03T23:09:19.625Z,7.53
2022-10-03T23:11:48.841Z,6.68
2022-10-03T23:14:23.452Z,7.15
2022-10-03T23:17:00.628Z,6.68
2022-10-03T23:19:48.882Z,5.80
2022-10-03T23:22:19.453Z,5.45
2022-10-03T23:24:53.958Z,6.40
2022-10-03T23:27:38.654Z,6.37
2022-10-03T23:30:11.292Z,6.82
2022-10-03T23:32:47.022Z,5.60
2022-10-03T23:35:17.279Z,5.97
2022-10-03T23:37:48.343Z,6.32
2022-10-03T23:40:32.938Z,5.40
2022-10-03T23:43:29.310Z,6.15
2022-10-03T23:46:05.269Z,4.97
2022-10-03T23:48:42.286Z,5.25
2022-10-03T23:51:12.935Z,5.80
2022-10-03T23:53:51.358Z,5.03
2022-10-03T23:56:38.152Z,5.60
2022-10-03T23:59:05.083Z,6.45
